createdAt,value
2023-04-16T00:00:40.978Z,5.27
2023-04-16T00:03:43.751Z,5.19
2023-04-16T00:06:46.657Z,5.09
2023-04-16T00:09:49.269Z,4.99
2023-04-16T00:12:51.793Z,4.88
2023-04-16T00:15:54.463Z,4.94
2023-04-16T00:18:57.041Z,4.73
2023-04-16T00:21:59.742Z,4.77
2023-04-16T00:25:02.489Z,4.85
2023-04-16T00:28:05.665Z,4.92
2023-04-16T00:31:08.270Z,4.91
2023-04-16T00:34:10.979Z,4.83
2023-04-16T00:37:14.288Z,4.93
2023-04-16T00:40:16.993Z,4.88
2023-04-16T00:43:24.899Z,4.85
2023-04-16T00:46:27.989Z,4.77
2023-04-16T00:49:31.614Z,4.86
2023-04-16T00:52:35.445Z,4.77
2023-04-16T00:55:38.650Z,4.83
2023-04-16T00:58:41.260Z,4.81
2023-04-16T01:01:43.917Z,4.62
2023-04-16T01:04:46.581Z,4.83
2023-04-16T01:07:49.331Z,4.91
2023-04-16T01:10:51.894Z,4.82
2023-04-16T01:13:54.915Z,4.81
2023-04-16T01:16:57.575Z,4.75
2023-04-16T01:20:00.927Z,4.96
2023-04-16T01:23:03.496Z,4.96
2023-04-16T01:26:06.135Z,5.02
2023-04-16T01:29:08.928Z,5.09
2023-04-16T01:32:11.670Z,5.11
2023-04-16T01:35:18.301Z,5.04
2023-04-16T01:38:20.909Z,5.09
2023-04-16T01:41:23.493Z,5.07
2023-04-16T01:44:26.508Z,5.11
2023-04-16T01:47:29.233Z,5.16
2023-04-16T01:50:32.063Z,5.26
2023-04-16T01:53:36.939Z,5.25
2023-04-16T01:56:40.000Z,5.26
2023-04-16T01:59:42.607Z,5.33
2023-04-16T02:02:45.605Z,5.26
2023-04-16T02:05:53.151Z,5.42
2023-04-16T02:08:55.928Z,5.39
2023-04-16T02:11:58.501Z,5.38
2023-04-16T02:15:01.052Z,5.37
2023-04-16T02:18:04.657Z,5.37
2023-04-16T02:21:07.942Z,5.38
2023-04-16T02:24:10.543Z,5.40
2023-04-16T02:27:13.165Z,5.40
2023-04-16T02:30:16.663Z,5.48
2023-04-16T02:33:20.358Z,5.40
2023-04-16T02:36:41.158Z,5.49
2023-04-16T02:39:44.146Z,5.45
2023-04-16T02:42:47.313Z,5.41
2023-04-16T02:45:50.065Z,5.38
2023-04-16T02:48:52.753Z,5.34
2023-04-16T02:51:55.625Z,5.45
2023-04-16T02:54:58.183Z,5.53
2023-04-16T02:58:01.048Z,5.47
2023-04-16T03:01:03.889Z,5.46
2023-04-16T03:04:06.593Z,5.52
2023-04-16T03:07:09.498Z,5.55
2023-04-16T03:10:12.462Z,5.56
2023-04-16T03:13:15.117Z,5.66
2023-04-16T03:16:19.506Z,5.54
2023-04-16T03:19:22.212Z,5.45
2023-04-16T03:22:24.873Z,5.50
2023-04-16T03:25:27.406Z,5.51
2023-04-16T03:28:30.014Z,5.49
2023-04-16T03:31:32.677Z,5.42
2023-04-16T03:34:36.964Z,5.52
2023-04-16T03:37:39.706Z,5.46
2023-04-16T03:40:42.292Z,5.39
2023-04-16T03:43:45.604Z,5.45
2023-04-16T03:46:48.453Z,5.37
2023-04-16T03:49:51.406Z,5.48
2023-04-16T03:52:54.709Z,5.44
2023-04-16T03:55:57.283Z,5.47
2023-04-16T03:58:59.934Z,5.56
2023-04-16T04:02:03.362Z,5.56
2023-04-16T04:05:07.806Z,5.56
2023-04-16T04:08:11.534Z,5.44
2023-04-16T04:11:14.620Z,5.65
2023-04-16T04:14:19.003Z,5.70
2023-04-16T04:17:21.699Z,5.70
2023-04-16T04:20:24.404Z,5.71
2023-04-16T04:23:28.271Z,5.70
2023-04-16T04:26:30.968Z,5.67
2023-04-16T04:29:33.628Z,5.74
2023-04-16T04:32:36.407Z,5.77
2023-04-16T04:35:38.999Z,5.82
2023-04-16T04:38:41.733Z,5.85
2023-04-16T04:41:44.316Z,5.87
2023-04-16T04:44:47.395Z,6.04
2023-04-16T04:47:50.138Z,6.15
2023-04-16T04:50:53.945Z,6.18
2023-04-16T04:53:56.548Z,6.11
2023-04-16T04:56:59.318Z,6.22
2023-04-16T05:00:04.078Z,6.24
2023-04-16T05:03:20.190Z,6.25
2023-04-16T05:06:22.801Z,6.54
2023-04-16T05:09:25.472Z,6.43
2023-04-16T05:12:28.100Z,6.70
2023-04-16T05:15:30.738Z,6.84
2023-04-16T05:18:33.496Z,6.98
2023-04-16T05:21:36.065Z,7.08
2023-04-16T05:24:38.671Z,7.20
2023-04-16T05:27:41.407Z,7.21
2023-04-16T05:30:44.032Z,7.21
2023-04-16T05:33:46.608Z,7.16
2023-04-16T05:36:49.167Z,7.30
2023-04-16T05:39:51.824Z,7.41
2023-04-16T05:42:54.379Z,7.35
2023-04-16T05:45:57.038Z,7.28
2023-04-16T05:48:59.678Z,7.22
2023-04-16T05:52:02.704Z,7.25
2023-04-16T05:55:06.057Z,7.25
2023-04-16T05:58:08.753Z,7.45
2023-04-16T06:01:11.646Z,7.54
2023-04-16T06:04:14.414Z,7.75
2023-04-16T06:07:17.287Z,7.78
2023-04-16T06:10:19.923Z,7.99
2023-04-16T06:13:22.483Z,7.98
2023-04-16T06:16:25.289Z,8.01
2023-04-16T06:19:27.938Z,8.14
2023-04-16T06:22:30.637Z,8.15
2023-04-16T06:25:33.152Z,8.17
2023-04-16T06:28:35.739Z,8.30
2023-04-16T06:31:38.353Z,8.44
2023-04-16T06:34:40.935Z,8.55
2023-04-16T06:37:43.546Z,8.66
2023-04-16T06:40:46.270Z,8.92
2023-04-16T06:43:48.960Z,8.89
2023-04-16T06:46:51.621Z,8.89
2023-04-16T06:49:54.199Z,9.21
2023-04-16T06:52:57.056Z,9.35
2023-04-16T06:55:59.622Z,9.47
2023-04-16T06:59:02.201Z,9.48
2023-04-16T07:02:04.938Z,9.55
2023-04-16T07:05:09.103Z,9.77
2023-04-16T07:08:11.700Z,9.79
2023-04-16T07:11:14.427Z,9.58
2023-04-16T07:14:17.326Z,9.73
2023-04-16T07:17:19.887Z,9.75
2023-04-16T07:20:22.455Z,9.68
2023-04-16T07:23:25.067Z,9.57
2023-04-16T07:26:27.571Z,9.53
2023-04-16T07:29:30.113Z,9.52
2023-04-16T07:32:32.945Z,9.48
2023-04-16T07:35:35.896Z,9.58
2023-04-16T07:38:38.559Z,9.69
2023-04-16T07:41:41.365Z,9.62
2023-04-16T07:44:44.300Z,9.40
2023-04-16T07:47:46.971Z,9.41
2023-04-16T07:50:50.456Z,9.46
2023-04-16T07:53:53.018Z,9.50
2023-04-16T07:56:55.716Z,9.51
2023-04-16T07:59:58.509Z,9.71
2023-04-16T08:03:01.328Z,9.44
2023-04-16T08:06:04.054Z,9.54
2023-04-16T08:09:06.668Z,9.58
2023-04-16T08:12:09.300Z,9.47
2023-04-16T08:15:12.095Z,9.62
2023-04-16T08:18:15.849Z,9.58
2023-04-16T08:21:18.457Z,9.38
2023-04-16T08:24:20.998Z,9.42
2023-04-16T08:27:24.316Z,9.54
2023-04-16T08:30:27.052Z,9.36
2023-04-16T08:33:29.851Z,9.39
2023-04-16T08:36:32.605Z,9.31
2023-04-16T08:39:35.506Z,9.22
2023-04-16T08:42:48.911Z,9.31
2023-04-16T08:45:53.686Z,9.29
2023-04-16T08:48:58.431Z,9.41
2023-04-16T08:52:01.718Z,9.34
2023-04-16T08:55:07.503Z,9.56
2023-04-16T08:58:14.938Z,9.73
2023-04-16T09:01:19.302Z,9.66
2023-04-16T09:04:22.808Z,9.67
2023-04-16T09:07:25.907Z,9.80
2023-04-16T09:10:28.647Z,9.84
2023-04-16T09:13:33.995Z,9.99
2023-04-16T09:16:36.695Z,10.00
2023-04-16T09:19:39.326Z,10.18
2023-04-16T09:22:43.797Z,10.38
2023-04-16T09:25:46.451Z,10.69
2023-04-16T09:28:51.428Z,10.44
2023-04-16T09:32:04.522Z,10.29
2023-04-16T09:35:07.278Z,10.46
2023-04-16T09:38:09.781Z,10.52
2023-04-16T09:41:12.612Z,10.47
2023-04-16T09:44:15.175Z,10.91
2023-04-16T09:47:18.022Z,11.12
2023-04-16T09:50:20.910Z,11.35
2023-04-16T09:53:31.092Z,11.37
2023-04-16T09:56:34.010Z,11.34
2023-04-16T09:59:36.587Z,11.60
2023-04-16T10:02:42.824Z,11.47
2023-04-16T10:05:45.574Z,11.37
2023-04-16T10:08:52.759Z,11.69
2023-04-16T10:11:55.480Z,12.03
2023-04-16T10:14:58.061Z,12.34
2023-04-16T10:18:00.845Z,12.46
2023-04-16T10:21:03.707Z,12.53
2023-04-16T10:24:06.726Z,12.42
2023-04-16T10:27:09.467Z,12.17
2023-04-16T10:30:13.219Z,12.12
2023-04-16T10:33:15.947Z,12.29
2023-04-16T10:36:24.513Z,12.45
2023-04-16T10:39:29.431Z,12.98
2023-04-16T10:42:32.046Z,12.82
2023-04-16T10:45:38.091Z,13.17
2023-04-16T10:48:49.931Z,13.07
2023-04-16T10:51:54.470Z,13.17
2023-04-16T10:54:59.206Z,13.20
2023-04-16T10:58:01.749Z,13.18
2023-04-16T11:01:13.590Z,13.08
2023-04-16T11:04:22.933Z,12.81
2023-04-16T11:07:36.014Z,12.79
2023-04-16T11:10:39.790Z,13.15
2023-04-16T11:13:46.543Z,13.00
2023-04-16T11:16:49.215Z,13.48
2023-04-16T11:19:53.674Z,13.59
2023-04-16T11:22:58.415Z,13.54
2023-04-16T11:26:01.181Z,13.69
2023-04-16T11:29:13.855Z,13.20
2023-04-16T11:32:22.936Z,13.13
2023-04-16T11:35:25.696Z,12.96
2023-04-16T11:38:38.087Z,13.41
2023-04-16T11:41:47.688Z,13.30
2023-04-16T11:44:54.687Z,13.69
2023-04-16T11:47:58.076Z,13.98
2023-04-16T11:51:00.934Z,14.21
2023-04-16T11:54:03.719Z,14.63
2023-04-16T11:57:06.310Z,14.83
2023-04-16T12:00:14.178Z,14.92
2023-04-16T12:03:16.948Z,14.67
2023-04-16T12:06:19.617Z,14.32
2023-04-16T12:09:26.222Z,14.45
2023-04-16T12:12:32.529Z,14.92
2023-04-16T12:15:55.002Z,15.30
2023-04-16T12:19:03.202Z,15.63
2023-04-16T12:22:05.792Z,15.30
2023-04-16T12:25:12.083Z,14.80
2023-04-16T12:28:16.719Z,14.73
2023-04-16T12:31:36.726Z,15.53
2023-04-16T12:34:51.457Z,15.84
2023-04-16T12:37:54.125Z,15.49
2023-04-16T12:40:57.866Z,15.04
2023-04-16T12:44:12.167Z,15.10
2023-04-16T12:47:14.923Z,15.41
2023-04-16T12:50:17.965Z,15.76
2023-04-16T12:53:20.599Z,16.14
2023-04-16T12:56:23.319Z,16.43
2023-04-16T12:59:25.978Z,16.91
2023-04-16T13:02:28.663Z,17.02
2023-04-16T13:05:31.434Z,16.56
2023-04-16T13:08:34.130Z,16.50
2023-04-16T13:11:36.776Z,16.63
2023-04-16T13:14:39.483Z,16.63
2023-04-16T13:17:42.075Z,16.35
2023-04-16T13:20:44.704Z,16.39
2023-04-16T13:23:47.374Z,16.19
2023-04-16T13:26:52.219Z,15.77
2023-04-16T13:29:54.975Z,15.83
2023-04-16T13:32:57.632Z,15.23
2023-04-16T13:36:00.471Z,14.99
2023-04-16T13:39:05.412Z,14.62
2023-04-16T13:42:08.005Z,14.61
2023-04-16T13:45:11.458Z,14.37
2023-04-16T13:48:14.134Z,14.16
2023-04-16T13:51:16.780Z,13.99
2023-04-16T13:54:19.398Z,13.94
2023-04-16T13:57:22.227Z,13.92
2023-04-16T14:00:26.617Z,13.94
2023-04-16T14:03:29.321Z,13.99
2023-04-16T14:06:33.148Z,14.21
2023-04-16T14:09:35.855Z,14.26
2023-04-16T14:12:39.249Z,14.14
2023-04-16T14:15:41.946Z,14.36
2023-04-16T14:18:44.876Z,14.30
2023-04-16T14:21:47.569Z,14.08
2023-04-16T14:24:50.118Z,14.05
2023-04-16T14:27:53.208Z,13.85
2023-04-16T14:30:55.734Z,14.03
2023-04-16T14:33:58.372Z,14.03
2023-04-16T14:37:00.998Z,13.74
2023-04-16T14:40:08.967Z,13.63
2023-04-16T14:43:11.815Z,13.53
2023-04-16T14:46:17.878Z,13.49
2023-04-16T14:49:20.888Z,13.42
2023-04-16T14:52:23.592Z,13.27
2023-04-16T14:55:26.504Z,13.11
2023-04-16T14:58:29.056Z,13.09
2023-04-16T15:01:32.342Z,12.97
2023-04-16T15:04:35.014Z,13.04
2023-04-16T15:07:37.713Z,12.95
2023-04-16T15:10:42.624Z,13.07
2023-04-16T15:13:45.222Z,13.13
2023-04-16T15:16:48.771Z,13.04
2023-04-16T15:19:52.332Z,13.19
2023-04-16T15:22:54.897Z,13.47
2023-04-16T15:25:58.380Z,13.29
2023-04-16T15:29:01.023Z,13.23
2023-04-16T15:32:04.171Z,13.18
2023-04-16T15:35:09.186Z,13.25
2023-04-16T15:38:13.133Z,12.98
2023-04-16T15:41:16.087Z,13.04
2023-04-16T15:44:18.996Z,13.04
2023-04-16T15:47:21.670Z,12.94
2023-04-16T15:50:25.715Z,12.88
2023-04-16T15:53:28.660Z,12.84
2023-04-16T15:56:31.628Z,12.77
2023-04-16T15:59:34.504Z,12.85
2023-04-16T16:02:38.491Z,12.81
2023-04-16T16:05:41.665Z,12.76
2023-04-16T16:08:44.452Z,12.78
2023-04-16T16:11:47.471Z,12.73
2023-04-16T16:14:50.045Z,12.67
2023-04-16T16:17:53.675Z,12.65
2023-04-16T16:20:58.249Z,12.59
2023-04-16T16:24:01.079Z,12.60
2023-04-16T16:27:03.985Z,12.51
2023-04-16T16:30:07.731Z,12.47
2023-04-16T16:33:10.337Z,12.47
2023-04-16T16:36:13.133Z,12.37
2023-04-16T16:39:16.119Z,12.31
2023-04-16T16:42:19.375Z,12.31
2023-04-16T16:45:22.236Z,12.30
2023-04-16T16:48:25.020Z,12.21
2023-04-16T16:51:27.757Z,12.15
2023-04-16T16:54:30.466Z,12.08
2023-04-16T16:57:33.228Z,12.02
2023-04-16T17:00:36.216Z,12.03
2023-04-16T17:03:39.080Z,12.01
2023-04-16T17:06:42.010Z,11.90
2023-04-16T17:09:45.022Z,11.88
2023-04-16T17:12:48.989Z,11.76
2023-04-16T17:15:51.770Z,11.73
2023-04-16T17:18:54.363Z,11.58
2023-04-16T17:21:57.289Z,11.50
2023-04-16T17:25:00.175Z,11.36
2023-04-16T17:28:03.239Z,11.31
2023-04-16T17:31:07.316Z,11.22
2023-04-16T17:34:10.182Z,11.06
2023-04-16T17:37:14.228Z,11.01
2023-04-16T17:40:18.385Z,11.00
2023-04-16T17:43:22.205Z,10.86
2023-04-16T17:46:25.052Z,10.74
2023-04-16T17:49:27.708Z,10.69
2023-04-16T17:52:30.591Z,10.70
2023-04-16T17:55:33.129Z,10.58
2023-04-16T17:58:36.654Z,10.45
2023-04-16T18:01:39.460Z,10.46
2023-04-16T18:04:42.391Z,10.48
2023-04-16T18:07:47.081Z,10.37
2023-04-16T18:10:49.874Z,10.39
2023-04-16T18:13:53.989Z,10.34
2023-04-16T18:16:57.111Z,10.33
2023-04-16T18:19:59.921Z,10.36
2023-04-16T18:23:03.100Z,10.36
2023-04-16T18:26:07.795Z,10.42
2023-04-16T18:29:13.299Z,10.40
2023-04-16T18:32:16.659Z,10.46
2023-04-16T18:35:19.625Z,10.48
2023-04-16T18:38:22.199Z,10.48
2023-04-16T18:41:25.299Z,10.50
2023-04-16T18:44:28.574Z,10.50
2023-04-16T18:47:31.740Z,10.41
2023-04-16T18:50:35.760Z,10.44
2023-04-16T18:53:39.363Z,10.41
2023-04-16T18:56:42.143Z,10.42
2023-04-16T18:59:45.893Z,10.44
2023-04-16T19:02:48.778Z,10.44
2023-04-16T19:05:52.701Z,10.43
2023-04-16T19:08:55.713Z,10.45
2023-04-16T19:11:58.502Z,10.47
2023-04-16T19:15:01.331Z,10.38
2023-04-16T19:18:04.266Z,10.47
2023-04-16T19:21:07.380Z,10.47
2023-04-16T19:24:10.317Z,10.47
2023-04-16T19:27:13.054Z,10.49
2023-04-16T19:30:15.908Z,10.49
2023-04-16T19:33:19.083Z,10.50
2023-04-16T19:36:21.819Z,10.51
2023-04-16T19:39:31.769Z,10.47
2023-04-16T19:42:34.364Z,10.46
2023-04-16T19:45:42.308Z,10.41
2023-04-16T19:48:44.964Z,10.34
2023-04-16T19:51:47.554Z,10.28
2023-04-16T19:54:50.289Z,10.17
2023-04-16T19:57:53.033Z,10.12
2023-04-16T20:00:56.529Z,10.18
2023-04-16T20:03:59.387Z,10.17
2023-04-16T20:07:02.642Z,10.19
2023-04-16T20:10:05.945Z,10.12
2023-04-16T20:13:13.834Z,10.08
2023-04-16T20:16:17.576Z,10.01
2023-04-16T20:19:20.260Z,9.95
2023-04-16T20:22:22.948Z,9.90
2023-04-16T20:25:26.316Z,9.70
2023-04-16T20:28:28.896Z,9.87
2023-04-16T20:31:31.526Z,9.97
2023-04-16T20:34:34.316Z,9.96
2023-04-16T20:37:38.698Z,9.88
2023-04-16T20:40:42.014Z,9.85
2023-04-16T20:43:44.795Z,10.00
2023-04-16T20:46:49.856Z,10.06
2023-04-16T20:49:54.901Z,9.95
2023-04-16T20:52:57.439Z,9.96
2023-04-16T20:56:00.723Z,10.17
2023-04-16T20:59:03.367Z,10.19
2023-04-16T21:02:06.380Z,10.25
2023-04-16T21:05:14.213Z,10.22
2023-04-16T21:08:17.728Z,10.13
2023-04-16T21:11:20.835Z,10.21
2023-04-16T21:14:23.440Z,10.10
2023-04-16T21:17:26.103Z,10.16
2023-04-16T21:20:30.447Z,10.22
2023-04-16T21:23:33.297Z,10.21
2023-04-16T21:26:36.000Z,10.28
2023-04-16T21:29:38.546Z,10.29
2023-04-16T21:32:41.367Z,10.28
2023-04-16T21:35:44.046Z,10.26
2023-04-16T21:38:46.710Z,10.29
2023-04-16T21:41:49.313Z,10.28
2023-04-16T21:44:52.512Z,10.29
2023-04-16T21:47:55.093Z,10.31
2023-04-16T21:50:59.231Z,10.30
2023-04-16T21:54:01.821Z,10.29
2023-04-16T21:57:04.415Z,10.25
2023-04-16T22:00:14.525Z,10.29
2023-04-16T22:03:18.706Z,10.27
2023-04-16T22:06:21.482Z,10.31
2023-04-16T22:09:25.009Z,10.20
2023-04-16T22:12:28.605Z,10.14
2023-04-16T22:15:31.317Z,10.07
2023-04-16T22:18:34.097Z,10.03
2023-04-16T22:21:36.857Z,10.12
2023-04-16T22:24:39.436Z,10.22
2023-04-16T22:27:41.977Z,10.22
2023-04-16T22:30:44.511Z,10.20
2023-04-16T22:33:47.089Z,10.16
2023-04-16T22:36:49.899Z,10.22
2023-04-16T22:39:52.499Z,10.20
2023-04-16T22:42:55.144Z,10.26
2023-04-16T22:46:07.301Z,10.29
2023-04-16T22:49:10.233Z,10.32
2023-04-16T22:52:13.002Z,10.28
2023-04-16T22:55:15.587Z,10.26
2023-04-16T22:58:18.241Z,10.28
2023-04-16T23:01:20.822Z,10.17
2023-04-16T23:04:23.527Z,10.17
2023-04-16T23:07:27.352Z,10.03
2023-04-16T23:10:29.881Z,10.12
2023-04-16T23:13:32.541Z,10.00
2023-04-16T23:16:35.865Z,9.94
2023-04-16T23:19:38.451Z,9.92
2023-04-16T23:22:41.480Z,9.92
2023-04-16T23:25:44.165Z,9.88
2023-04-16T23:28:46.699Z,9.82
2023-04-16T23:31:49.451Z,9.72
2023-04-16T23:34:52.167Z,9.67
2023-04-16T23:37:54.917Z,9.66
2023-04-16T23:40:57.505Z,9.58
2023-04-16T23:44:00.043Z,9.54
2023-04-16T23:47:02.729Z,9.57
2023-04-16T23:50:06.295Z,9.54
2023-04-16T23:53:08.829Z,9.51
2023-04-16T23:56:11.524Z,9.52
2023-04-16T23:59:14.468Z,9.47
